Time;durP1;ratioP1;P1;durP2;ratioP2;P2;SDS_P1;SDS_P2;PMS_P1;PMS_P2;Temp;Humidity;BMP_temperature;BMP_pressure;BME280_temperature;BME280_humidity;BME280_pressure;Samples;Min_cycle;Max_cycle;Signal;HPM_P1;HPM_P2
2023/05/13 00:01:37;;;;;;;15.63;14.02;;;;;;;11.95;82.00;99489.78;4285516;33;34621;-87
2023/05/13 00:04:06;;;;;;;17.25;14.02;;;;;;;11.70;82.28;99496.34;4285791;33;34139;-80
2023/05/13 00:06:34;;;;;;;16.30;14.60;;;;;;;11.46;83.86;99496.88;4259464;33;33621;-85
2023/05/13 00:09:02;;;;;;;16.05;14.35;;;;;;;11.39;85.08;99503.69;4286226;33;33059;-88
2023/05/13 00:11:29;;;;;;;17.27;15.20;;;;;;;11.77;82.93;99489.50;4283576;33;34433;-87
2023/05/13 00:13:57;;;;;;;15.38;13.77;;;;;;;12.06;81.18;99493.38;4287023;33;33773;-85
2023/05/13 00:16:26;;;;;;;15.52;13.93;;;;;;;11.36;84.21;99501.03;4286813;33;34101;-86
2023/05/13 00:18:55;;;;;;;15.45;13.15;;;;;;;11.60;83.15;99494.47;4285486;33;34213;-85
2023/05/13 00:21:22;;;;;;;16.12;14.02;;;;;;;11.73;82.03;99492.91;4285294;33;33568;-86
2023/05/13 00:23:50;;;;;;;16.48;13.25;;;;;;;11.83;82.17;99494.78;4286699;33;34192;-86
2023/05/13 00:26:17;;;;;;;17.67;14.35;;;;;;;12.30;79.58;99492.78;4287525;33;33969;-85
2023/05/13 00:28:46;;;;;;;17.85;13.32;;;;;;;11.71;82.10;99492.91;4285712;33;33408;-85
2023/05/13 00:31:14;;;;;;;14.87;12.57;;;;;;;12.05;79.85;99489.03;4286793;33;33972;-85
2023/05/13 00:33:42;;;;;;;14.87;13.30;;;;;;;11.79;81.09;99496.47;4287046;33;34260;-86
2023/05/13 00:36:11;;;;;;;16.83;13.88;;;;;;;11.25;84.25;99502.62;4273367;33;33364;-84
2023/05/13 00:38:38;;;;;;;14.63;12.77;;;;;;;11.92;81.12;99487.12;4285661;33;33121;-84
2023/05/13 00:41:07;;;;;;;16.67;13.55;;;;;;;11.79;80.72;99495.59;4285515;33;34097;-85
2023/05/13 00:43:34;;;;;;;14.80;12.90;;;;;;;11.73;81.33;99498.09;4285909;33;34163;-84
2023/05/13 00:46:02;;;;;;;15.02;12.27;;;;;;;11.90;80.54;99499.25;4286072;33;33463;-84
2023/05/13 00:48:30;;;;;;;15.77;11.93;;;;;;;11.83;80.60;99492.19;4274220;33;33378;-85
2023/05/13 00:50:58;;;;;;;15.80;13.00;;;;;;;11.56;81.61;99503.97;4287289;33;34810;-89
2023/05/13 00:53:25;;;;;;;15.50;12.35;;;;;;;11.62;81.48;99496.22;4274683;33;34110;-85
2023/05/13 00:55:53;;;;;;;16.40;14.02;;;;;;;11.93;80.20;99496.66;4286472;33;33864;-85
2023/05/13 00:58:20;;;;;;;14.02;12.63;;;;;;;11.74;81.49;99502.44;4285893;33;33344;-85
2023/05/13 01:01:04;;;;;;;14.43;12.55;;;;;;;11.45;82.40;99506.37;4286779;33;34076;-85
2023/05/13 01:03:45;;;;;;;16.58;14.07;;;;;;;11.75;80.57;99509.41;4272987;33;33586;-85
2023/05/13 01:06:16;;;;;;;14.50;13.00;;;;;;;11.77;81.12;99502.50;4280004;33;34086;-85
2023/05/13 01:08:57;;;;;;;14.90;13.15;;;;;;;11.72;80.89;99506.75;4270781;33;33809;-84
2023/05/13 01:11:31;;;;;;;14.18;12.68;;;;;;;11.90;80.25;99504.44;4273555;33;34796;-85
2023/05/13 01:14:09;;;;;;;14.85;13.23;;;;;;;11.58;81.35;99511.75;4285407;33;35464;-85
2023/05/13 01:16:49;;;;;;;14.05;12.37;;;;;;;11.88;79.74;99507.00;4271866;33;34811;-85
2023/05/13 01:19:31;;;;;;;15.13;12.25;;;;;;;11.99;79.72;99507.16;4272332;33;34701;-86
2023/05/13 01:21:58;;;;;;;18.02;12.82;;;;;;;12.20;78.18;99511.75;4286622;33;33982;-84
2023/05/13 01:24:26;;;;;;;14.87;12.32;;;;;;;11.65;80.21;99511.00;4285320;33;34186;-85
2023/05/13 01:26:54;;;;;;;13.88;12.32;;;;;;;11.75;79.80;99512.00;4284747;33;33411;-84
2023/05/13 01:29:21;;;;;;;16.23;12.35;;;;;;;11.69;80.30;99516.25;4271857;33;33052;-84
2023/05/13 01:31:50;;;;;;;16.85;13.30;;;;;;;11.78;79.78;99510.31;4286501;33;34828;-85
2023/05/13 01:34:19;;;;;;;14.50;12.48;;;;;;;11.47;81.66;99521.09;4272307;33;33874;-86
2023/05/13 01:36:47;;;;;;;13.52;12.13;;;;;;;12.04;78.44;99513.25;4284802;33;33718;-85
2023/05/13 01:39:17;;;;;;;14.25;12.75;;;;;;;11.86;78.83;99506.13;4284980;33;34472;-86
2023/05/13 01:41:45;;;;;;;14.65;11.65;;;;;;;11.73;79.96;99508.50;4273883;33;33850;-85
2023/05/13 01:44:12;;;;;;;16.42;12.43;;;;;;;11.62;79.74;99506.63;4285574;33;33929;-85
2023/05/13 01:46:42;;;;;;;13.88;11.48;;;;;;;11.71;79.84;99518.00;4284371;33;33864;-87
2023/05/13 01:49:10;;;;;;;14.30;11.95;;;;;;;12.10;77.64;99512.47;4276857;33;34299;-87
2023/05/13 01:51:37;;;;;;;14.48;11.85;;;;;;;11.57;79.27;99513.47;4285398;33;34675;-86
2023/05/13 01:54:05;;;;;;;13.57;12.02;;;;;;;11.90;77.71;99512.25;4284833;33;34250;-84
2023/05/13 01:56:34;;;;;;;14.93;11.35;;;;;;;11.84;78.49;99514.75;4279377;33;34902;-86
2023/05/13 01:59:02;;;;;;;15.05;11.90;;;;;;;11.94;78.34;99508.81;4285598;33;33610;-85
2023/05/13 02:01:29;;;;;;;15.77;11.70;;;;;;;11.63;79.56;99513.59;4285423;33;33845;-86
2023/05/13 02:03:58;;;;;;;14.23;12.57;;;;;;;11.73;79.78;99521.47;4286031;33;34656;-88
2023/05/13 02:06:27;;;;;;;14.45;12.95;;;;;;;11.45;80.99;99524.56;4285824;33;34696;-87
2023/05/13 02:08:54;;;;;;;13.98;12.48;;;;;;;11.69;80.31;99515.38;4276049;33;33753;-85
2023/05/13 02:11:22;;;;;;;14.02;12.52;;;;;;;11.38;80.94;99527.91;4271835;33;33939;-85
2023/05/13 02:13:50;;;;;;;16.40;14.20;;;;;;;11.86;79.15;99516.53;4282415;33;35024;-88
2023/05/13 02:16:19;;;;;;;15.98;14.27;;;;;;;11.51;80.98;99528.97;4284672;33;33626;-88
2023/05/13 02:18:47;;;;;;;17.90;14.23;;;;;;;11.45;81.69;99516.78;4284592;33;34425;-85
2023/05/13 02:21:14;;;;;;;15.65;14.05;;;;;;;11.73;79.64;99516.28;4287923;33;33921;-83
2023/05/13 02:23:43;;;;;;;18.42;15.95;;;;;;;11.43;80.96;99527.97;4277088;33;35122;-85
2023/05/13 02:26:11;;;;;;;18.10;15.32;;;;;;;11.55;80.53;99522.09;4269183;33;34711;-87
2023/05/13 02:28:39;;;;;;;17.50;15.70;;;;;;;11.30;82.06;99519.16;4287538;33;33246;-84
2023/05/13 02:31:06;;;;;;;21.08;16.17;;;;;;;11.64;80.41;99522.25;4287919;33;33635;-86
2023/05/13 02:33:34;;;;;;;18.58;16.58;;;;;;;11.94;78.86;99521.81;4287769;33;34062;-86
2023/05/13 02:36:02;;;;;;;23.02;16.67;;;;;;;11.78;79.92;99525.00;4283100;33;34605;-84
2023/05/13 02:38:30;;;;;;;18.52;16.62;;;;;;;11.89;78.67;99518.25;4281532;33;33453;-84
2023/05/13 02:40:58;;;;;;;20.62;16.92;;;;;;;11.55;80.52;99517.75;4283633;33;34056;-85
2023/05/13 02:43:26;;;;;;;18.80;16.70;;;;;;;11.46;80.88;99522.84;4285590;33;34599;-85
2023/05/13 02:45:54;;;;;;;18.98;16.92;;;;;;;11.52;80.70;99520.34;4287397;33;34305;-86
2023/05/13 02:48:21;;;;;;;19.98;17.62;;;;;;;11.50;80.60;99529.81;4287398;33;33523;-85
2023/05/13 02:50:49;;;;;;;19.08;17.10;;;;;;;11.69;80.02;99521.44;4286531;33;33855;-86
2023/05/13 02:53:17;;;;;;;19.42;17.42;;;;;;;11.93;78.70;99530.44;4285480;33;34314;-88
2023/05/13 02:55:45;;;;;;;19.87;17.87;;;;;;;11.85;79.23;99524.28;4287332;33;33901;-86
2023/05/13 02:58:14;;;;;;;18.50;16.62;;;;;;;12.11;77.84;99532.41;4285902;33;33529;-87
2023/05/13 03:00:42;;;;;;;18.00;16.17;;;;;;;12.04;77.74;99523.66;4285414;33;34004;-85
2023/05/13 03:03:09;;;;;;;18.50;16.55;;;;;;;11.75;78.37;99527.59;4285583;33;34921;-87
2023/05/13 03:05:37;;;;;;;18.08;16.20;;;;;;;11.84;78.65;99527.72;4261540;33;33657;-85
2023/05/13 03:08:04;;;;;;;17.92;15.73;;;;;;;11.44;79.11;99534.94;4287041;33;33545;-85
2023/05/13 03:10:32;;;;;;;19.37;16.02;;;;;;;11.31;79.81;99530.41;4287344;33;33591;-85
2023/05/13 03:13:00;;;;;;;16.83;15.13;;;;;;;11.32;80.27;99534.72;4286505;33;33727;-85
2023/05/13 03:15:28;;;;;;;17.83;15.82;;;;;;;11.14;81.04;99531.00;4274070;33;34666;-86
2023/05/13 03:17:56;;;;;;;17.40;14.73;;;;;;;11.24;80.57;99531.16;4287985;33;34805;-86
2023/05/13 03:20:24;;;;;;;18.17;16.20;;;;;;;11.33;79.72;99536.50;4281745;33;34983;-87
2023/05/13 03:22:52;;;;;;;18.35;15.82;;;;;;;11.28;79.99;99545.91;4285559;33;34188;-85
2023/05/13 03:25:19;;;;;;;18.12;14.95;;;;;;;11.29;80.49;99539.88;4284446;33;34571;-85
2023/05/13 03:27:47;;;;;;;15.93;14.15;;;;;;;11.38;79.27;99540.91;4286012;33;33637;-85
2023/05/13 03:30:15;;;;;;;16.92;15.13;;;;;;;11.05;80.52;99542.94;4285576;33;33884;-86
2023/05/13 03:32:43;;;;;;;16.30;13.70;;;;;;;11.06;80.72;99537.81;4285812;33;34917;-85
2023/05/13 03:35:11;;;;;;;16.02;14.27;;;;;;;11.24;79.84;99545.00;4287321;33;34246;-85
2023/05/13 03:37:39;;;;;;;19.52;15.57;;;;;;;10.88;82.10;99548.72;4287702;33;34010;-86
2023/05/13 03:40:07;;;;;;;19.25;15.65;;;;;;;10.80;82.32;99554.62;4286590;33;33708;-84
2023/05/13 03:42:35;;;;;;;17.52;14.48;;;;;;;11.20;80.82;99548.38;4286963;33;34059;-85
2023/05/13 03:45:03;;;;;;;17.15;14.10;;;;;;;10.83;82.51;99550.34;4286496;33;33515;-86
2023/05/13 03:47:31;;;;;;;17.45;15.02;;;;;;;11.09;81.20;99562.91;4286701;33;33313;-85
2023/05/13 03:49:59;;;;;;;16.55;14.85;;;;;;;11.08;80.66;99555.97;4286939;33;33950;-85
2023/05/13 03:52:29;;;;;;;17.37;14.82;;;;;;;11.15;80.35;99556.09;4286206;33;35099;-86
2023/05/13 03:54:56;;;;;;;16.12;14.43;;;;;;;10.86;81.21;99555.59;4285876;33;34689;-84
2023/05/13 03:57:24;;;;;;;16.67;13.32;;;;;;;11.15;80.83;99556.09;4286505;33;32251;-85
2023/05/13 03:59:52;;;;;;;16.02;14.32;;;;;;;11.08;80.43;99567.22;4286771;33;34728;-84
2023/05/13 04:02:20;;;;;;;15.27;13.68;;;;;;;10.96;81.06;99559.25;4285212;33;34259;-85
2023/05/13 04:04:48;;;;;;;16.33;12.88;;;;;;;11.28;80.07;99569.28;4286029;33;34667;-88
2023/05/13 04:07:16;;;;;;;16.37;13.82;;;;;;;10.94;80.90;99569.56;4286290;33;32976;-85
2023/05/13 04:09:43;;;;;;;14.63;13.07;;;;;;;11.23;80.18;99565.75;4286599;33;34056;-84
2023/05/13 04:12:11;;;;;;;14.93;13.38;;;;;;;11.19;80.24;99573.47;4284329;33;33854;-84
2023/05/13 04:14:39;;;;;;;15.82;13.60;;;;;;;11.74;78.12;99575.16;4287104;33;34649;-85
2023/05/13 04:17:06;;;;;;;14.75;13.15;;;;;;;11.40;79.25;99565.16;4286136;33;33715;-85
2023/05/13 04:19:34;;;;;;;14.80;12.55;;;;;;;11.61;78.37;99575.00;4284781;33;33968;-85
2023/05/13 04:22:01;;;;;;;15.90;12.93;;;;;;;11.41;79.43;99577.28;4287620;33;34175;-85
2023/05/13 04:24:29;;;;;;;14.82;12.98;;;;;;;11.73;77.81;99574.31;4286060;33;34984;-85
2023/05/13 04:26:56;;;;;;;15.38;12.77;;;;;;;11.56;78.28;99578.38;4286005;33;33338;-85
2023/05/13 04:29:28;;;;;;;14.87;12.93;;;;;;;11.22;79.89;99582.16;4284869;33;33729;-84
2023/05/13 04:31:55;;;;;;;15.25;13.48;;;;;;;11.33;80.03;99578.91;4286142;33;33939;-85
2023/05/13 04:34:23;;;;;;;15.93;12.73;;;;;;;11.56;78.63;99586.19;4286560;33;33605;-85
2023/05/13 04:36:51;;;;;;;16.67;13.57;;;;;;;11.33;79.83;99580.63;4287754;33;33215;-84
2023/05/13 04:39:19;;;;;;;17.95;13.57;;;;;;;11.57;79.19;99572.34;4286079;33;33760;-85
2023/05/13 04:41:46;;;;;;;15.68;13.48;;;;;;;11.39;79.80;99578.09;4285439;33;34096;-85
2023/05/13 04:44:14;;;;;;;18.20;13.20;;;;;;;11.28;80.96;99592.62;4285058;33;33899;-84
2023/05/13 04:46:43;;;;;;;17.05;13.68;;;;;;;11.52;79.08;99589.59;4286930;33;33148;-85
2023/05/13 04:49:11;;;;;;;15.57;13.07;;;;;;;11.57;79.74;99588.78;4284705;33;34769;-84
2023/05/13 04:51:39;;;;;;;14.87;13.15;;;;;;;11.29;80.44;99584.88;4285269;33;34833;-85
2023/05/13 04:54:07;;;;;;;17.73;15.13;;;;;;;11.63;79.14;99593.19;4286101;33;34149;-84
2023/05/13 04:56:35;;;;;;;14.68;13.05;;;;;;;11.69;79.51;99588.97;4285996;33;34041;-85
2023/05/13 04:59:02;;;;;;;18.40;14.23;;;;;;;11.78;78.67;99597.75;4285611;33;34663;-86
2023/05/13 05:01:29;;;;;;;14.82;12.98;;;;;;;11.32;80.71;99610.00;4285721;33;33729;-89
2023/05/13 05:04:01;;;;;;;15.85;13.50;;;;;;;11.49;79.34;99597.31;4279534;33;34018;-86
2023/05/13 05:06:30;;;;;;;14.43;12.70;;;;;;;11.40;80.11;99606.72;4286603;33;34012;-86
2023/05/13 05:08:58;;;;;;;16.50;14.07;;;;;;;11.57;78.67;99600.91;4285543;33;34678;-84
2023/05/13 05:11:25;;;;;;;16.80;13.57;;;;;;;11.17;81.09;99608.91;4283402;33;34904;-85
2023/05/13 05:13:53;;;;;;;15.05;13.45;;;;;;;11.25;81.29;99609.06;4285692;33;34602;-85
2023/05/13 05:16:20;;;;;;;17.00;14.73;;;;;;;10.99;82.18;99607.72;4286653;33;34424;-85
2023/05/13 05:18:48;;;;;;;15.30;13.68;;;;;;;11.56;80.03;99613.03;4285928;33;34881;-87
2023/05/13 05:21:17;;;;;;;15.60;13.25;;;;;;;11.43;80.16;99608.47;4286491;33;34003;-84
2023/05/13 05:23:45;;;;;;;17.48;13.95;;;;;;;11.73;78.54;99609.78;4285254;33;34086;-86
2023/05/13 05:26:13;;;;;;;14.57;12.35;;;;;;;11.77;78.52;99606.38;4285829;33;33536;-86
2023/05/13 05:28:41;;;;;;;15.95;13.73;;;;;;;11.45;79.81;99609.38;4286461;33;34028;-87
2023/05/13 05:31:09;;;;;;;16.70;13.00;;;;;;;11.51;80.36;99614.66;4272699;33;34971;-85
2023/05/13 05:33:38;;;;;;;16.25;13.68;;;;;;;11.49;79.53;99620.69;4285070;33;33951;-85
2023/05/13 05:36:06;;;;;;;15.82;13.88;;;;;;;11.62;79.51;99613.09;4272965;33;33915;-85
2023/05/13 05:38:34;;;;;;;16.27;13.70;;;;;;;11.33;81.38;99617.84;4285862;33;33919;-87
2023/05/13 05:41:03;;;;;;;16.92;13.95;;;;;;;11.45;81.01;99614.56;4285735;33;33788;-85
2023/05/13 05:43:31;;;;;;;15.43;13.55;;;;;;;11.47;81.42;99623.22;4285587;33;33780;-86
2023/05/13 05:45:58;;;;;;;15.52;13.30;;;;;;;11.47;81.04;99617.19;4286366;33;33615;-86
2023/05/13 05:48:26;;;;;;;17.08;14.50;;;;;;;11.41;81.02;99612.78;4285637;33;33606;-85
2023/05/13 05:50:55;;;;;;;16.83;14.52;;;;;;;11.41;81.11;99604.97;4285960;33;33986;-85
2023/05/13 05:53:23;;;;;;;18.27;14.48;;;;;;;11.43;81.55;99603.25;4286217;33;33874;-85
2023/05/13 05:55:50;;;;;;;15.90;13.35;;;;;;;11.27;82.26;99620.31;4290087;33;33181;-85
2023/05/13 05:58:19;;;;;;;17.17;13.93;;;;;;;11.15;81.84;99618.38;4290712;33;33838;-85
2023/05/13 06:00:48;;;;;;;17.05;14.27;;;;;;;11.25;81.98;99626.31;4290234;33;34081;-85
2023/05/13 06:03:16;;;;;;;17.12;14.13;;;;;;;11.28;81.77;99624.66;4288887;33;34167;-84
2023/05/13 06:05:44;;;;;;;20.20;14.82;;;;;;;11.09;82.72;99625.19;4290529;33;34578;-85
2023/05/13 06:08:11;;;;;;;19.98;14.52;;;;;;;11.38;81.55;99629.16;4290936;33;34792;-85
2023/05/13 06:10:39;;;;;;;17.05;14.52;;;;;;;11.27;81.79;99632.41;4287185;33;34241;-85
2023/05/13 06:13:06;;;;;;;14.85;12.50;;;;;;;11.39;81.74;99622.25;4289936;33;33893;-84
2023/05/13 06:15:35;;;;;;;16.67;13.15;;;;;;;11.36;80.68;99629.97;4289662;33;34231;-85
2023/05/13 06:18:04;;;;;;;16.02;13.05;;;;;;;11.34;81.79;99629.97;4289751;33;34886;-85
2023/05/13 06:20:32;;;;;;;15.60;13.07;;;;;;;11.78;80.62;99624.62;4289920;33;32884;-84
2023/05/13 06:22:59;;;;;;;15.30;12.48;;;;;;;11.78;81.00;99628.91;4290478;33;34730;-86
2023/05/13 06:25:27;;;;;;;15.82;12.27;;;;;;;11.95;79.89;99631.81;4288400;33;33466;-88
2023/05/13 06:27:55;;;;;;;15.43;12.65;;;;;;;11.76;80.06;99636.69;4288193;33;33436;-85
2023/05/13 06:30:22;;;;;;;14.35;11.30;;;;;;;12.03;79.61;99630.19;4289759;33;35078;-85
2023/05/13 06:32:50;;;;;;;13.18;10.57;;;;;;;11.58;80.11;99631.19;4289620;33;34861;-85
2023/05/13 06:35:29;;;;;;;14.75;12.55;;;;;;;11.62;79.58;99633.00;4289368;33;33500;-84
2023/05/13 06:37:57;;;;;;;13.68;11.05;;;;;;;11.65;81.10;99633.06;4288445;33;34907;-83
2023/05/13 06:40:25;;;;;;;15.13;11.45;;;;;;;11.78;80.02;99634.09;4289498;33;33772;-90
2023/05/13 06:42:52;;;;;;;15.32;12.37;;;;;;;11.94;80.20;99641.34;4284295;33;33459;-85
2023/05/13 06:45:22;;;;;;;16.73;12.30;;;;;;;11.73;80.81;99641.84;4290790;33;33412;-85
2023/05/13 06:47:50;;;;;;;13.93;12.43;;;;;;;11.88;80.28;99638.62;4286719;33;33673;-85
2023/05/13 06:50:18;;;;;;;14.30;12.07;;;;;;;11.68;81.04;99636.56;4285688;33;33954;-87
2023/05/13 06:52:46;;;;;;;13.82;11.93;;;;;;;11.77;81.76;99634.97;4289620;33;34837;-85
2023/05/13 06:55:15;;;;;;;13.82;11.40;;;;;;;11.75;80.71;99636.69;4289705;33;34876;-85
2023/05/13 06:57:45;;;;;;;13.90;11.68;;;;;;;11.91;79.60;99631.75;4290640;33;33813;-88
2023/05/13 07:00:14;;;;;;;15.93;11.30;;;;;;;11.84;81.07;99631.66;4289310;33;35172;-86
2023/05/13 07:02:41;;;;;;;13.30;11.15;;;;;;;11.75;81.74;99634.09;4290716;33;33768;-94
2023/05/13 07:05:10;;;;;;;15.02;10.65;;;;;;;11.96;81.21;99628.34;4290049;33;33552;-85
2023/05/13 07:07:38;;;;;;;13.25;10.77;;;;;;;12.29;79.57;99633.16;4285949;33;34863;-85
2023/05/13 07:10:05;;;;;;;15.45;11.88;;;;;;;11.68;80.73;99623.59;4283794;33;35130;-90
2023/05/13 07:12:33;;;;;;;13.30;11.80;;;;;;;11.84;82.39;99631.66;4287849;33;33346;-87
2023/05/13 07:15:01;;;;;;;12.37;11.07;;;;;;;12.52;78.44;99625.66;4274677;33;33338;-85
2023/05/13 07:17:30;;;;;;;14.20;10.43;;;;;;;12.54;77.63;99622.22;4287529;33;33924;-86
2023/05/13 07:19:58;;;;;;;13.13;10.13;;;;;;;12.43;77.29;99626.41;4287133;33;33883;-85
2023/05/13 07:22:26;;;;;;;13.13;10.60;;;;;;;12.33;78.39;99629.75;4287107;33;33370;-90
2023/05/13 07:24:54;;;;;;;22.42;19.98;;;;;;;12.46;77.93;99635.97;4282542;33;33254;-86
2023/05/13 07:27:21;;;;;;;22.45;16.60;;;;;;;12.72;76.65;99625.88;4280336;33;33604;-86
2023/05/13 07:29:49;;;;;;;11.80;9.60;;;;;;;12.45;75.59;99635.09;4273433;33;34067;-86
2023/05/13 07:32:16;;;;;;;9.98;8.35;;;;;;;12.41;76.32;99638.50;4282072;33;33749;-86
2023/05/13 07:34:44;;;;;;;10.82;8.75;;;;;;;12.13;76.54;99635.53;4284851;33;99230;-86
2023/05/13 07:37:11;;;;;;;10.48;8.65;;;;;;;12.25;76.36;99642.63;4287429;33;33582;-86
2023/05/13 07:39:39;;;;;;;10.40;8.45;;;;;;;12.26;77.12;99644.38;4287982;33;34144;-85
2023/05/13 07:42:06;;;;;;;13.30;11.90;;;;;;;11.91;77.96;99639.56;4287861;33;34796;-86
2023/05/13 07:44:34;;;;;;;11.77;8.95;;;;;;;12.17;77.71;99633.88;4287969;33;34590;-86
2023/05/13 07:47:02;;;;;;;13.10;8.80;;;;;;;12.16;78.12;99651.19;4286940;33;33635;-88
2023/05/13 07:49:29;;;;;;;12.07;9.27;;;;;;;12.41;76.02;99638.50;4287858;33;35213;-86
2023/05/13 07:51:57;;;;;;;9.73;7.72;;;;;;;12.59;77.18;99654.34;4287980;33;34875;-91
2023/05/13 07:54:24;;;;;;;10.25;8.18;;;;;;;12.66;75.84;99644.91;4287905;33;33520;-85
2023/05/13 07:56:52;;;;;;;9.93;7.43;;;;;;;12.72;75.01;99651.88;4287916;33;34568;-85
2023/05/13 07:59:19;;;;;;;10.18;7.95;;;;;;;12.48;75.07;99650.75;4288167;33;33817;-87
2023/05/13 08:01:47;;;;;;;9.60;6.72;;;;;;;12.40;76.60;99652.38;4287825;33;34140;-87
2023/05/13 08:04:15;;;;;;;11.10;9.18;;;;;;;12.40;75.71;99653.25;4274532;33;32697;-84
2023/05/13 08:06:43;;;;;;;10.18;7.45;;;;;;;12.72;75.36;99650.16;4276613;33;33840;-86
2023/05/13 08:09:11;;;;;;;9.40;7.72;;;;;;;12.80;74.63;99652.84;4287503;33;35037;-86
2023/05/13 08:11:39;;;;;;;8.43;6.68;;;;;;;12.92;74.67;99668.63;4287491;33;33942;-86
2023/05/13 08:14:06;;;;;;;9.75;7.80;;;;;;;12.83;74.10;99663.28;4287744;33;33058;-86
2023/05/13 08:16:37;;;;;;;9.20;7.40;;;;;;;12.67;74.35;99667.44;4287195;33;33873;-86
2023/05/13 08:19:05;;;;;;;10.65;6.75;;;;;;;12.67;74.71;99683.06;4287219;33;34294;-85
2023/05/13 08:21:32;;;;;;;10.32;7.80;;;;;;;12.42;75.42;99679.25;4287571;33;33824;-85
2023/05/13 08:24:00;;;;;;;8.73;7.00;;;;;;;12.56;74.83;99664.72;4287530;33;33574;-86
2023/05/13 08:26:28;;;;;;;9.90;7.50;;;;;;;12.78;74.14;99668.44;4286683;33;34371;-87
2023/05/13 08:28:56;;;;;;;10.90;7.78;;;;;;;12.96;74.66;99672.13;4285287;33;34097;-86
2023/05/13 08:31:24;;;;;;;10.00;7.47;;;;;;;13.02;73.59;99683.47;4287252;33;34020;-86
2023/05/13 08:33:52;;;;;;;13.85;9.63;;;;;;;13.00;73.33;99686.94;4286137;33;33872;-86
2023/05/13 08:36:24;;;;;;;8.38;6.37;;;;;;;12.86;73.50;99685.03;4274512;33;33749;-86
2023/05/13 08:38:52;;;;;;;10.88;7.55;;;;;;;12.81;73.56;99686.72;4287382;33;34906;-87
2023/05/13 08:41:21;;;;;;;13.23;8.18;;;;;;;12.96;73.94;99686.03;4286641;33;34752;-86
2023/05/13 08:43:50;;;;;;;13.05;9.23;;;;;;;13.54;72.33;99686.63;4287335;33;33087;-86
2023/05/13 08:46:19;;;;;;;13.82;9.23;;;;;;;13.24;73.32;99684.59;4273942;33;33942;-84
2023/05/13 08:48:47;;;;;;;10.90;8.25;;;;;;;13.12;74.90;99687.06;4273047;33;33983;-87
2023/05/13 08:51:15;;;;;;;14.00;9.73;;;;;;;12.90;74.51;99685.94;4273015;33;34821;-86
2023/05/13 08:53:43;;;;;;;11.25;8.70;;;;;;;13.17;74.55;99687.09;4284833;33;33569;-87
2023/05/13 08:56:11;;;;;;;11.10;8.02;;;;;;;13.45;72.61;99689.16;4274204;33;33901;-87
2023/05/13 08:58:38;;;;;;;9.50;7.35;;;;;;;13.56;71.89;99690.13;4286748;33;34283;-86
2023/05/13 09:01:06;;;;;;;12.07;7.65;;;;;;;13.50;71.47;99676.19;4284046;33;34623;-87
2023/05/13 09:03:35;;;;;;;11.10;8.25;;;;;;;13.66;71.87;99682.41;4291639;33;34215;-86
2023/05/13 09:06:03;;;;;;;11.27;8.18;;;;;;;13.82;71.56;99685.12;4301979;33;34053;-88
2023/05/13 09:08:31;;;;;;;9.52;7.68;;;;;;;14.05;70.30;99679.22;4301407;33;35231;-84
2023/05/13 09:10:59;;;;;;;9.27;7.20;;;;;;;14.17;70.40;99689.75;4288608;33;33970;-86
2023/05/13 09:13:27;;;;;;;14.18;7.87;;;;;;;13.97;71.33;99696.53;4291623;33;34320;-84
2023/05/13 09:15:54;;;;;;;9.15;7.78;;;;;;;13.93;70.79;99690.44;4292779;33;33906;-85
2023/05/13 09:18:29;;;;;;;12.45;8.48;;;;;;;13.84;70.91;99687.75;4287201;33;34156;-85
2023/05/13 09:20:57;;;;;;;13.33;8.27;;;;;;;13.81;69.85;99679.91;4260317;33;34245;-87
2023/05/13 09:23:25;;;;;;;13.57;7.85;;;;;;;13.88;69.90;99686.91;4272826;33;34580;-87
2023/05/13 09:25:53;;;;;;;10.68;8.18;;;;;;;13.41;70.98;99684.78;4286015;33;33566;-89
2023/05/13 09:28:22;;;;;;;8.73;7.45;;;;;;;13.71;70.71;99691.09;4287172;33;33992;-86
2023/05/13 09:30:54;;;;;;;10.35;7.87;;;;;;;13.66;71.20;99683.25;4286067;33;34535;-86
2023/05/13 09:33:29;;;;;;;11.15;8.75;;;;;;;13.47;70.43;99683.97;4274098;33;33326;-86
2023/05/13 09:35:56;;;;;;;10.00;7.85;;;;;;;13.55;71.58;99690.97;4286067;33;33544;-86
2023/05/13 09:38:25;;;;;;;11.00;7.53;;;;;;;13.29;70.38;99693.31;4286404;33;35123;-83
2023/05/13 09:40:56;;;;;;;9.88;6.82;;;;;;;13.74;70.96;99693.75;4285928;33;34093;-90
2023/05/13 09:43:26;;;;;;;10.73;7.37;;;;;;;14.10;68.20;99681.00;4286473;33;33145;-87
2023/05/13 09:45:54;;;;;;;11.55;7.45;;;;;;;13.69;69.91;99695.44;4282710;33;33708;-88
2023/05/13 09:48:24;;;;;;;9.27;6.85;;;;;;;14.02;69.37;99690.50;4301656;33;34165;-87
2023/05/13 09:50:53;;;;;;;12.48;6.45;;;;;;;14.28;68.26;99688.06;4288345;33;33874;-87
2023/05/13 09:53:21;;;;;;;10.50;7.07;;;;;;;14.48;66.51;99675.13;4301356;33;34222;-85
2023/05/13 09:55:50;;;;;;;8.60;6.43;;;;;;;14.32;68.52;99678.53;4301241;33;33857;-85
2023/05/13 09:58:19;;;;;;;8.38;6.10;;;;;;;14.43;66.35;99682.03;4300776;33;34302;-86
2023/05/13 10:00:46;;;;;;;10.20;6.37;;;;;;;14.39;66.25;99680.28;4292318;33;34041;-88
2023/05/13 10:03:15;;;;;;;9.10;5.80;;;;;;;13.95;67.50;99682.63;4286592;33;33535;-84
2023/05/13 10:05:42;;;;;;;9.95;6.35;;;;;;;13.48;68.22;99681.34;4286668;33;34118;-85
2023/05/13 10:08:11;;;;;;;9.10;6.18;;;;;;;13.79;67.78;99682.53;4286200;33;33968;-89
2023/05/13 10:10:41;;;;;;;8.82;6.57;;;;;;;14.13;67.03;99677.56;4286674;33;34149;-84
2023/05/13 10:13:12;;;;;;;7.93;6.25;;;;;;;14.21;66.94;99681.06;4286705;33;33778;-84
2023/05/13 10:15:44;;;;;;;9.77;6.87;;;;;;;14.54;66.14;99685.62;4273584;33;33973;-86
2023/05/13 10:18:12;;;;;;;6.70;5.07;;;;;;;14.54;66.29;99677.78;4272905;33;34138;-85
2023/05/13 10:20:41;;;;;;;8.35;6.05;;;;;;;14.63;64.49;99671.78;4285246;33;34742;-84
2023/05/13 10:23:09;;;;;;;7.80;5.90;;;;;;;14.60;64.65;99672.63;4286754;33;33961;-86
2023/05/13 10:25:37;;;;;;;8.52;5.97;;;;;;;14.02;65.89;99679.22;4286635;33;33734;-86
2023/05/13 10:28:05;;;;;;;8.85;6.28;;;;;;;14.35;65.64;99673.31;4272625;33;35162;-84
2023/05/13 10:30:34;;;;;;;9.48;6.35;;;;;;;13.97;66.77;99673.06;4285563;33;34793;-86
2023/05/13 10:33:02;;;;;;;9.55;6.10;;;;;;;14.18;66.73;99677.56;4273418;33;32842;-85
2023/05/13 10:35:35;;;;;;;8.57;5.97;;;;;;;14.03;65.69;99671.38;4285704;33;33951;-85
2023/05/13 10:38:10;;;;;;;10.10;6.47;;;;;;;13.76;66.90;99684.22;4278902;33;34261;-86
2023/05/13 10:40:56;;;;;;;10.15;6.53;;;;;;;13.54;67.39;99676.22;4283491;33;33687;-89
2023/05/13 10:43:28;;;;;;;9.80;7.12;;;;;;;14.12;66.67;99687.09;4281982;33;34212;-85
2023/05/13 10:46:06;;;;;;;10.63;6.90;;;;;;;14.10;66.36;99686.22;4288090;33;33984;-84
2023/05/13 10:49:00;;;;;;;8.90;6.28;;;;;;;14.11;66.94;99690.56;4270521;33;34311;-86
2023/05/13 10:51:28;;;;;;;9.68;6.22;;;;;;;13.87;65.96;99695.59;4272516;33;34041;-90
2023/05/13 10:53:59;;;;;;;9.00;6.22;;;;;;;13.76;67.50;99692.03;4279917;33;33163;-89
2023/05/13 10:56:27;;;;;;;9.88;6.85;;;;;;;13.96;66.11;99689.59;4288119;33;34583;-86
2023/05/13 10:59:03;;;;;;;8.88;5.97;;;;;;;14.03;66.85;99689.63;4274229;33;34783;-87
2023/05/13 11:01:34;;;;;;;10.77;6.95;;;;;;;13.68;67.67;99689.37;4273978;33;34224;-87
2023/05/13 11:04:04;;;;;;;10.07;6.72;;;;;;;13.85;67.18;99689.50;4288051;33;33815;-86
2023/05/13 11:06:36;;;;;;;9.45;6.47;;;;;;;13.88;67.08;99682.56;4274284;33;34932;-84
2023/05/13 11:09:14;;;;;;;9.05;6.30;;;;;;;13.99;66.58;99680.06;4287710;33;34864;-86
2023/05/13 11:11:46;;;;;;;8.77;6.40;;;;;;;14.06;66.58;99683.59;4287801;33;34675;-85
2023/05/13 11:14:21;;;;;;;10.30;6.40;;;;;;;13.78;66.60;99678.16;4287450;33;34627;-85
2023/05/13 11:16:54;;;;;;;10.10;7.60;;;;;;;13.86;66.48;99678.19;4289991;33;34030;-84
2023/05/13 11:19:27;;;;;;;11.15;7.22;;;;;;;13.74;67.30;99678.12;4268738;33;34997;-86
2023/05/13 11:21:58;;;;;;;12.73;7.30;;;;;;;14.05;67.48;99687.03;4281813;33;33948;-86
2023/05/13 11:24:26;;;;;;;13.40;7.12;;;;;;;14.26;65.94;99678.50;4287643;33;33346;-86
2023/05/13 11:26:55;;;;;;;10.98;6.65;;;;;;;14.08;65.35;99674.88;4287484;33;34077;-85
2023/05/13 11:29:30;;;;;;;11.18;6.97;;;;;;;14.36;64.58;99678.56;4274604;33;34008;-84